createdAt,value
2023-02-12T00:00:04.280Z,23.58
2023-02-12T00:03:08.810Z,25.92
2023-02-12T00:06:15.790Z,27.25
2023-02-12T00:09:20.333Z,25.95
2023-02-12T00:12:24.653Z,24.58
2023-02-12T00:15:28.808Z,23.80
2023-02-12T00:18:33.022Z,24.40
2023-02-12T00:21:37.398Z,25.05
2023-02-12T00:24:42.080Z,25.15
2023-02-12T00:27:46.362Z,23.67
2023-02-12T00:30:50.748Z,21.42
2023-02-12T00:34:01.440Z,20.30
2023-02-12T00:37:06.430Z,20.80
2023-02-12T00:40:11.577Z,21.05
2023-02-12T00:43:16.077Z,18.00
2023-02-12T00:46:21.802Z,18.15
2023-02-12T00:49:26.466Z,18.58
2023-02-12T00:52:30.598Z,21.13
2023-02-12T00:55:35.472Z,20.58
2023-02-12T00:58:39.738Z,22.75
2023-02-12T01:01:44.229Z,22.98
2023-02-12T01:04:48.597Z,24.52
2023-02-12T01:07:54.140Z,25.75
2023-02-12T01:11:04.582Z,27.45
2023-02-12T01:14:09.149Z,28.65
2023-02-12T01:20:20.084Z,31.27
2023-02-12T01:23:24.707Z,31.80
2023-02-12T01:26:30.978Z,28.40
2023-02-12T01:29:36.923Z,24.98
2023-02-12T01:32:41.418Z,22.55
2023-02-12T01:35:45.991Z,21.73
2023-02-12T01:38:51.541Z,23.33
2023-02-12T01:41:56.886Z,21.10
2023-02-12T01:45:13.796Z,22.25
2023-02-12T01:48:20.335Z,20.80
2023-02-12T01:51:25.943Z,21.95
2023-02-12T01:54:31.890Z,23.48
2023-02-12T01:57:43.536Z,18.05
2023-02-12T02:00:48.465Z,13.07
2023-02-12T02:04:01.151Z,12.68
2023-02-12T02:07:08.788Z,11.18
2023-02-12T02:10:13.768Z,12.82
2023-02-12T02:13:37.667Z,14.48
2023-02-12T02:17:36.497Z,21.00
2023-02-12T02:21:30.750Z,23.48
2023-02-12T02:25:42.035Z,19.85
2023-02-12T02:28:59.828Z,22.05
2023-02-12T02:32:14.183Z,17.95
2023-02-12T02:35:32.437Z,15.50
2023-02-12T02:38:57.223Z,16.83
2023-02-12T02:42:17.703Z,18.42
2023-02-12T02:45:48.245Z,18.35
2023-02-12T02:49:03.161Z,20.23
2023-02-12T02:52:14.729Z,18.33
2023-02-12T02:55:23.934Z,19.15
2023-02-12T02:58:39.088Z,18.65
2023-02-12T03:02:01.739Z,15.80
2023-02-12T03:05:18.205Z,10.98
2023-02-12T03:08:55.275Z,9.90
2023-02-12T03:12:12.717Z,10.43
2023-02-12T03:15:39.139Z,9.77
2023-02-12T03:19:10.300Z,7.90
2023-02-12T03:22:21.278Z,9.07
2023-02-12T03:25:44.499Z,8.45
2023-02-12T03:28:49.357Z,8.43
2023-02-12T03:32:22.944Z,10.38
2023-02-12T03:35:44.686Z,9.45
2023-02-12T03:38:56.201Z,9.30
2023-02-12T03:42:48.451Z,10.80
2023-02-12T03:46:11.437Z,9.82
2023-02-12T03:49:32.287Z,12.23
2023-02-12T03:52:37.135Z,11.10
2023-02-12T03:55:47.248Z,8.77
2023-02-12T03:58:53.062Z,9.38
2023-02-12T04:01:59.639Z,9.93
2023-02-12T04:05:08.759Z,11.48
2023-02-12T04:08:13.884Z,13.32
2023-02-12T04:11:40.947Z,13.32
2023-02-12T04:15:00.631Z,11.65
2023-02-12T04:18:52.880Z,13.70
2023-02-12T04:22:48.871Z,12.65
2023-02-12T04:26:08.299Z,14.23
2023-02-12T04:29:35.231Z,14.32
2023-02-12T04:32:51.951Z,15.13
2023-02-12T04:36:09.170Z,16.30
2023-02-12T04:39:22.202Z,17.65
2023-02-12T04:42:26.511Z,15.25
2023-02-12T04:45:33.901Z,15.90
2023-02-12T04:49:03.062Z,14.38
2023-02-12T04:52:08.170Z,14.57
2023-02-12T04:55:13.046Z,14.77
2023-02-12T04:58:18.795Z,14.23
2023-02-12T05:01:23.474Z,14.88
2023-02-12T05:04:28.189Z,14.68
2023-02-12T05:07:32.644Z,17.83
2023-02-12T05:10:36.931Z,15.35
2023-02-12T05:13:41.855Z,16.58
2023-02-12T05:16:46.441Z,16.38
2023-02-12T05:19:50.931Z,18.10
2023-02-12T05:22:55.517Z,16.48
2023-02-12T05:26:02.534Z,18.25
2023-02-12T05:29:07.105Z,17.65
2023-02-12T05:32:11.369Z,19.30
2023-02-12T05:35:15.589Z,18.17
2023-02-12T05:38:20.504Z,21.48
2023-02-12T05:41:26.046Z,23.50
2023-02-12T05:44:30.466Z,21.10
2023-02-12T05:47:34.727Z,21.80
2023-02-12T05:50:38.888Z,23.08
2023-02-12T05:53:43.542Z,24.33
2023-02-12T05:56:48.681Z,23.58
2023-02-12T05:59:53.188Z,23.77
2023-02-12T06:02:57.593Z,24.17
2023-02-12T06:06:01.741Z,25.13
2023-02-12T06:09:05.833Z,25.73
2023-02-12T06:12:10.553Z,25.08
2023-02-12T06:15:15.520Z,28.27
2023-02-12T06:18:20.137Z,27.42
2023-02-12T06:21:26.782Z,29.23
2023-02-12T06:24:31.600Z,30.67
2023-02-12T06:27:36.019Z,32.15
2023-02-12T06:30:40.484Z,31.98
2023-02-12T06:33:45.000Z,32.05
2023-02-12T06:36:49.613Z,32.88
2023-02-12T06:39:54.053Z,32.65
2023-02-12T06:42:58.244Z,32.13
2023-02-12T06:46:03.941Z,32.60
2023-02-12T06:49:11.820Z,34.92
2023-02-12T06:52:16.483Z,31.30
2023-02-12T06:55:21.301Z,28.63
2023-02-12T06:58:25.866Z,28.75
2023-02-12T07:04:34.559Z,28.80
2023-02-12T07:07:38.804Z,29.40
2023-02-12T07:10:43.027Z,29.23
2023-02-12T07:13:47.298Z,31.83
2023-02-12T07:16:51.416Z,31.73
2023-02-12T07:19:55.579Z,31.65
2023-02-12T07:23:00.127Z,33.58
2023-02-12T07:26:12.978Z,28.98
2023-02-12T07:29:17.644Z,31.73
2023-02-12T07:32:21.996Z,30.80
2023-02-12T07:35:26.421Z,32.67
2023-02-12T07:38:31.581Z,33.03
2023-02-12T07:41:36.658Z,33.20
2023-02-12T07:44:41.209Z,35.53
2023-02-12T07:47:45.808Z,27.00
2023-02-12T07:50:50.059Z,30.65
2023-02-12T07:53:55.249Z,30.42
2023-02-12T07:57:00.660Z,29.17
2023-02-12T08:00:06.129Z,30.58
2023-02-12T08:03:10.334Z,27.85
2023-02-12T08:06:20.503Z,26.27
2023-02-12T08:09:28.615Z,27.42
2023-02-12T08:12:32.621Z,28.25
2023-02-12T08:15:37.300Z,25.10
2023-02-12T08:18:42.444Z,30.90
2023-02-12T08:21:50.007Z,31.42
2023-02-12T08:24:54.516Z,32.17
2023-02-12T08:27:58.682Z,33.58
2023-02-12T08:31:06.466Z,32.22
2023-02-12T08:34:22.052Z,34.35
2023-02-12T08:37:26.407Z,38.08
2023-02-12T08:40:30.878Z,38.13
2023-02-12T08:43:35.816Z,35.97
2023-02-12T08:46:50.129Z,38.55
2023-02-12T08:52:59.574Z,36.53
2023-02-12T08:56:04.720Z,34.92
2023-02-12T08:59:10.841Z,40.40
2023-02-12T09:02:15.182Z,35.17
2023-02-12T09:05:19.705Z,35.38
2023-02-12T09:08:23.945Z,34.08
2023-02-12T09:11:32.540Z,33.88
2023-02-12T09:14:36.662Z,33.75
2023-02-12T09:17:43.219Z,30.25
2023-02-12T09:20:47.606Z,27.75
2023-02-12T09:23:53.223Z,29.67
2023-02-12T09:26:57.892Z,25.73
2023-02-12T09:30:02.509Z,28.92
2023-02-12T09:33:08.202Z,25.45
2023-02-12T09:36:15.756Z,24.60
2023-02-12T09:39:20.315Z,23.38
2023-02-12T09:42:40.053Z,21.30
2023-02-12T09:46:16.550Z,20.40
2023-02-12T09:49:59.573Z,16.98
2023-02-12T09:53:05.623Z,16.27
2023-02-12T09:56:16.260Z,14.55
2023-02-12T09:59:43.727Z,13.77
2023-02-12T10:02:53.973Z,12.23
2023-02-12T10:06:09.218Z,11.27
2023-02-12T10:09:39.498Z,11.55
2023-02-12T10:12:49.745Z,10.45
2023-02-12T10:16:19.237Z,8.05
2023-02-12T10:19:38.484Z,6.43
2023-02-12T10:23:10.448Z,6.82
2023-02-12T10:26:21.872Z,6.85
2023-02-12T10:29:35.206Z,7.78
2023-02-12T10:32:43.122Z,7.22
2023-02-12T10:36:02.816Z,5.55
2023-02-12T10:39:10.256Z,4.60
2023-02-12T10:42:14.443Z,5.60
2023-02-12T10:45:29.724Z,5.10
2023-02-12T10:48:39.976Z,6.65
2023-02-12T10:52:05.196Z,4.10
2023-02-12T10:55:30.619Z,7.88
2023-02-12T10:58:55.324Z,6.82
2023-02-12T11:05:54.663Z,6.75
2023-02-12T11:09:05.361Z,5.57
2023-02-12T11:12:47.990Z,5.65
2023-02-12T11:15:59.082Z,4.63
2023-02-12T11:19:20.581Z,5.03
2023-02-12T11:22:24.912Z,4.30
2023-02-12T11:25:32.899Z,4.50
2023-02-12T11:28:37.590Z,4.10
2023-02-12T11:31:42.514Z,4.43
2023-02-12T11:35:18.647Z,4.85
2023-02-12T11:38:54.831Z,4.70
2023-02-12T11:42:15.265Z,3.92
2023-02-12T11:45:25.734Z,3.03
2023-02-12T11:48:39.931Z,3.13
2023-02-12T11:51:48.903Z,2.80
2023-02-12T11:55:01.063Z,3.03
2023-02-12T11:58:20.969Z,3.38
2023-02-12T12:01:33.101Z,3.63
2023-02-12T12:04:39.667Z,4.72
2023-02-12T12:07:53.193Z,4.82
2023-02-12T12:11:14.822Z,4.10
2023-02-12T12:15:06.919Z,4.65
2023-02-12T12:19:13.294Z,5.60
2023-02-12T12:22:51.179Z,5.18
2023-02-12T12:26:03.001Z,5.50
2023-02-12T12:29:46.998Z,5.85
2023-02-12T12:32:55.740Z,7.10
2023-02-12T12:36:14.086Z,6.38
2023-02-12T12:40:03.645Z,7.25
2023-02-12T12:43:26.275Z,8.00
2023-02-12T12:47:17.864Z,8.80
2023-02-12T12:50:51.779Z,9.07
2023-02-12T12:54:40.633Z,9.13
2023-02-12T12:58:20.124Z,7.97
2023-02-12T13:01:49.035Z,8.25
2023-02-12T13:05:36.452Z,9.93
2023-02-12T13:09:24.706Z,10.80
2023-02-12T13:13:04.234Z,9.32
2023-02-12T13:16:34.096Z,9.27
2023-02-12T13:20:41.903Z,9.02
2023-02-12T13:24:02.283Z,9.00
2023-02-12T13:27:19.999Z,9.80
2023-02-12T13:30:39.004Z,9.00
2023-02-12T13:33:52.638Z,9.25
2023-02-12T13:37:01.752Z,8.18
2023-02-12T13:40:22.004Z,9.25
2023-02-12T13:43:43.516Z,9.95
2023-02-12T13:47:16.716Z,11.00
2023-02-12T13:50:33.114Z,12.70
2023-02-12T13:54:30.771Z,12.38
2023-02-12T13:57:35.297Z,11.30
2023-02-12T14:00:52.017Z,11.88
2023-02-12T14:03:56.278Z,11.73
2023-02-12T14:07:10.973Z,11.50
2023-02-12T14:10:42.287Z,15.48
2023-02-12T14:14:01.101Z,14.48
2023-02-12T14:17:33.213Z,10.70
2023-02-12T14:20:40.167Z,14.82
2023-02-12T14:23:47.141Z,13.80
2023-02-12T14:26:52.410Z,15.13
2023-02-12T14:30:33.538Z,15.55
2023-02-12T14:33:38.016Z,16.90
2023-02-12T14:36:45.461Z,19.02
2023-02-12T14:39:50.279Z,15.27
2023-02-12T14:42:58.043Z,14.30
2023-02-12T14:46:24.169Z,13.00
2023-02-12T14:49:49.127Z,12.45
2023-02-12T14:53:27.892Z,12.43
2023-02-12T14:56:45.660Z,12.57
2023-02-12T14:59:52.812Z,12.30
2023-02-12T15:03:14.531Z,13.20
2023-02-12T15:06:25.202Z,13.88
2023-02-12T15:10:10.122Z,14.05
2023-02-12T15:13:50.123Z,12.50
2023-02-12T15:17:19.749Z,15.25
2023-02-12T15:20:33.264Z,15.05
2023-02-12T15:23:44.664Z,13.70
2023-02-12T15:26:53.206Z,16.73
2023-02-12T15:29:58.360Z,18.45
2023-02-12T15:33:07.782Z,16.63
2023-02-12T15:36:21.938Z,14.23
2023-02-12T15:39:28.830Z,15.02
2023-02-12T15:42:42.691Z,15.02
2023-02-12T15:45:52.494Z,14.32
2023-02-12T15:48:58.013Z,16.48
2023-02-12T15:52:33.402Z,16.55
2023-02-12T15:55:43.791Z,15.70
2023-02-12T15:58:53.459Z,16.17
2023-02-12T16:02:03.511Z,16.98
2023-02-12T16:05:14.685Z,17.08
2023-02-12T16:08:22.380Z,18.45
2023-02-12T16:11:28.431Z,18.50
2023-02-12T16:14:53.367Z,16.75
2023-02-12T16:17:59.754Z,20.65
2023-02-12T16:21:18.760Z,19.17
2023-02-12T16:24:39.224Z,20.02
2023-02-12T16:28:04.217Z,22.20
2023-02-12T16:31:13.068Z,20.42
2023-02-12T16:34:38.420Z,21.88
2023-02-12T16:38:25.112Z,22.85
2023-02-12T16:41:55.054Z,31.35
2023-02-12T16:44:59.372Z,26.13
2023-02-12T16:48:10.668Z,23.38
2023-02-12T16:51:32.258Z,33.50
2023-02-12T16:54:36.949Z,23.65
2023-02-12T16:57:41.213Z,39.47
2023-02-12T17:00:45.661Z,29.77
2023-02-12T17:03:51.110Z,23.83
2023-02-12T17:06:55.662Z,20.88
2023-02-12T17:10:00.943Z,20.67
2023-02-12T17:13:05.550Z,46.53
2023-02-12T17:16:11.245Z,34.45
2023-02-12T17:19:17.583Z,22.33
2023-02-12T17:22:26.927Z,24.08
2023-02-12T17:25:33.940Z,33.83
2023-02-12T17:28:41.378Z,22.98
2023-02-12T17:31:46.650Z,21.45
2023-02-12T17:34:51.303Z,23.42
2023-02-12T17:37:55.904Z,23.48
2023-02-12T17:44:04.428Z,26.83
2023-02-12T17:47:09.625Z,29.15
2023-02-12T17:50:16.674Z,27.77
2023-02-12T17:53:21.365Z,26.40
2023-02-12T17:56:26.394Z,25.95
2023-02-12T17:59:30.538Z,26.02
2023-02-12T18:02:34.890Z,55.70
2023-02-12T18:05:43.328Z,25.20
2023-02-12T18:08:47.711Z,48.22
2023-02-12T18:11:52.120Z,26.98
2023-02-12T18:15:07.971Z,27.80
2023-02-12T18:18:12.356Z,25.10
2023-02-12T18:21:17.470Z,27.98
2023-02-12T18:24:22.154Z,27.88
2023-02-12T18:27:26.580Z,23.75
2023-02-12T18:30:31.016Z,23.88
2023-02-12T18:33:36.541Z,23.67
2023-02-12T18:36:41.914Z,22.95
2023-02-12T18:39:46.156Z,21.13
2023-02-12T18:42:50.573Z,24.20
2023-02-12T18:45:55.246Z,22.85
2023-02-12T18:49:00.133Z,24.50
2023-02-12T18:52:05.406Z,26.83
2023-02-12T18:55:09.670Z,21.25
2023-02-12T18:58:13.939Z,20.63
2023-02-12T19:01:20.298Z,21.83
2023-02-12T19:04:27.656Z,21.50
2023-02-12T19:07:32.279Z,20.35
2023-02-12T19:10:40.249Z,23.52
2023-02-12T19:13:44.650Z,24.00
2023-02-12T19:16:49.458Z,24.52
2023-02-12T19:19:53.890Z,25.42
2023-02-12T19:22:58.282Z,25.92
2023-02-12T19:26:09.218Z,36.83
2023-02-12T19:29:14.674Z,28.15
2023-02-12T19:32:19.086Z,23.95
2023-02-12T19:35:23.441Z,25.52
2023-02-12T19:38:27.660Z,25.65
2023-02-12T19:41:33.084Z,25.05
2023-02-12T19:44:37.850Z,22.55
2023-02-12T19:47:42.744Z,22.77
2023-02-12T19:50:47.064Z,22.55
2023-02-12T19:53:52.499Z,23.40
2023-02-12T19:56:57.216Z,20.40
2023-02-12T20:00:01.559Z,23.05
2023-02-12T20:03:06.338Z,22.05
2023-02-12T20:06:15.959Z,20.33
2023-02-12T20:09:21.800Z,23.70
2023-02-12T20:12:26.443Z,23.77
2023-02-12T20:15:30.879Z,23.38
2023-02-12T20:18:36.087Z,23.33
2023-02-12T20:21:41.653Z,25.23
2023-02-12T20:24:46.228Z,28.13
2023-02-12T20:27:52.114Z,27.85
2023-02-12T20:30:57.087Z,26.77
2023-02-12T20:34:08.024Z,26.52
2023-02-12T20:37:13.921Z,26.73
2023-02-12T20:40:18.272Z,24.60
2023-02-12T20:43:22.533Z,23.83
2023-02-12T20:46:27.806Z,25.05
2023-02-12T20:49:32.163Z,22.17
2023-02-12T20:52:37.748Z,22.42
2023-02-12T20:55:42.005Z,22.25
2023-02-12T20:58:47.595Z,21.85
2023-02-12T21:01:52.544Z,22.52
2023-02-12T21:04:56.954Z,22.65
2023-02-12T21:08:01.294Z,22.70
2023-02-12T21:11:18.384Z,22.48
2023-02-12T21:14:24.249Z,22.85
2023-02-12T21:17:28.741Z,22.95
2023-02-12T21:26:42.197Z,21.75
2023-02-12T21:29:46.270Z,21.90
2023-02-12T21:32:51.351Z,22.00
2023-02-12T21:35:56.085Z,22.95
2023-02-12T21:39:01.559Z,22.63
2023-02-12T21:42:06.048Z,20.55
2023-02-12T21:45:10.199Z,21.80
2023-02-12T21:48:14.579Z,22.13
2023-02-12T21:51:32.522Z,23.02
2023-02-12T21:54:36.693Z,24.83
2023-02-12T21:57:41.068Z,23.60
2023-02-12T22:00:46.091Z,22.70
2023-02-12T22:03:51.559Z,22.50
2023-02-12T22:06:57.967Z,24.75
2023-02-12T22:10:02.375Z,23.40
2023-02-12T22:13:06.372Z,24.02
2023-02-12T22:16:26.806Z,22.17
2023-02-12T22:19:31.385Z,21.52
2023-02-12T22:22:35.587Z,19.23
2023-02-12T22:25:39.604Z,18.25
2023-02-12T22:28:47.512Z,17.45
2023-02-12T22:31:52.370Z,17.83
2023-02-12T22:34:57.087Z,16.67
2023-02-12T22:38:02.867Z,16.33
2023-02-12T22:41:09.497Z,16.95
2023-02-12T22:44:16.079Z,13.23
2023-02-12T22:47:23.945Z,10.35
2023-02-12T22:50:28.522Z,10.98
2023-02-12T22:53:33.026Z,11.55
2023-02-12T22:56:37.173Z,11.18
2023-02-12T22:59:41.613Z,11.38
2023-02-12T23:02:45.793Z,10.50
2023-02-12T23:05:49.976Z,12.43
2023-02-12T23:08:59.446Z,12.05
2023-02-12T23:12:07.524Z,12.48
2023-02-12T23:15:12.092Z,13.27
2023-02-12T23:21:21.157Z,12.68
2023-02-12T23:24:25.890Z,13.25
2023-02-12T23:27:30.241Z,11.75
2023-02-12T23:30:34.653Z,13.95
2023-02-12T23:33:38.788Z,12.95
2023-02-12T23:36:43.031Z,15.32
2023-02-12T23:39:47.314Z,16.58
2023-02-12T23:42:51.956Z,16.23
2023-02-12T23:45:56.503Z,14.32
2023-02-12T23:49:00.970Z,15.68
2023-02-12T23:55:09.598Z,12.63
2023-02-12T23:58:14.101Z,13.43
